This is the latest recevied weather packets stored in our database for station/object N4CRH-13. If no packets are shown the sender has not sent any weather packets the latest 10 day(s).
| Time | Temp. | Humidity | Pressure | Rain* | Wind** | Luminosity | Snow |
|---|---|---|---|---|---|---|---|
| 1777741785 | 12.78° C | 30% | 1300.3 hPa | 0 mm | - | 679 W/m² | - |
| 1777741482 | 12.78° C | 29% | 1300.4 hPa | 0 mm | - | 672 W/m² | - |
| 1777741177 | 13.33° C | 27% | 1300.5 hPa | 0 mm | - | 665 W/m² | - |
| 1777740875 | 13.33° C | 29% | 1300.4 hPa | 0 mm | - | 655 W/m² | - |
| 1777740572 | 12.78° C | 28% | 1300.5 hPa | 0 mm | - | 647 W/m² | - |
| 1777740268 | 12.78° C | 33% | 1300.5 hPa | 0 mm | - | 637 W/m² | - |
| 1777739965 | 12.78° C | 31% | 1300.7 hPa | 0 mm | - | 627 W/m² | - |
| 1777739661 | 12.78° C | 31% | 1300.4 hPa | 0 mm | - | 618 W/m² | - |
| 1777739359 | 12.78° C | 29% | 1300.5 hPa | 0 mm | - | 607 W/m² | - |
| 1777739056 | 12.78° C | 30% | 1300.5 hPa | 0 mm | - | 596 W/m² | - |
| 1777738753 | 12.22° C | 29% | 1300.7 hPa | 0 mm | - | 586 W/m² | - |
| 1777738449 | 11.67° C | 29% | 1300.8 hPa | 0 mm | - | 573 W/m² | - |
| 1777738147 | 11.67° C | 31% | 1300.7 hPa | 0 mm | - | 562 W/m² | - |
| 1777737846 | 11.67° C | 29% | 1300.8 hPa | 0 mm | - | 550 W/m² | - |
| 1777737544 | 11.67° C | 31% | 1300.7 hPa | 0 mm | - | 538 W/m² | - |
| 1777737242 | 11.11° C | 30% | 1300.7 hPa | 0 mm | - | 522 W/m² | - |
| 1777736937 | 11.67° C | 28% | 1300.9 hPa | 0 mm | - | 520 W/m² | - |
| 1777736032 | 11.11° C | 28% | 1301 hPa | 0 mm | - | 476 W/m² | - |
| 1777735728 | 11.11° C | 28% | 1300.8 hPa | 0 mm | - | 463 W/m² | - |
| 1777735426 | 11.67° C | 30% | 1300.8 hPa | 0 mm | - | 448 W/m² | - |
| 1777735124 | 11.11° C | 32% | 1300.9 hPa | 0 mm | - | 435 W/m² | - |
| 1777734820 | 11.11° C | 33% | 1300.8 hPa | 0 mm | - | 422 W/m² | - |
| 1777734518 | 11.11° C | 30% | 1300.9 hPa | 0 mm | - | 407 W/m² | - |
| 1777734214 | 11.11° C | 31% | 1300.8 hPa | 0 mm | - | 391 W/m² | - |
| 1777733910 | 10.56° C | 30% | 1300.9 hPa | 0 mm | - | 380 W/m² | - |
* Rain latest hour (hover to see other rain measurements)
** Current wind speed in m/s (hover to see current wind gust speed)